createdAt,value
2022-11-20T00:00:41.605Z,24.18
2022-11-20T00:05:48.991Z,26.40
2022-11-20T00:10:54.835Z,17.70
2022-11-20T00:16:01.943Z,25.63
2022-11-20T00:21:10.431Z,23.27
2022-11-20T00:26:18.253Z,23.63
2022-11-20T00:31:25.882Z,24.25
2022-11-20T00:36:33.998Z,25.13
2022-11-20T00:41:39.436Z,24.02
2022-11-20T00:46:45.652Z,24.03
2022-11-20T00:51:50.604Z,23.77
2022-11-20T00:56:56.293Z,21.63
2022-11-20T01:02:01.755Z,23.77
2022-11-20T01:07:07.389Z,21.03
2022-11-20T01:12:12.740Z,20.82
2022-11-20T01:17:18.544Z,26.57
2022-11-20T01:22:24.490Z,23.07
2022-11-20T01:27:29.549Z,27.17
2022-11-20T01:32:35.704Z,25.50
2022-11-20T01:37:40.960Z,22.05
2022-11-20T01:43:07.206Z,23.10
2022-11-20T01:48:13.307Z,23.97
2022-11-20T01:53:21.700Z,22.30
2022-11-20T01:58:30.136Z,20.95
2022-11-20T02:03:35.861Z,22.58
2022-11-20T02:08:42.074Z,22.07
2022-11-20T02:18:53.678Z,21.27
2022-11-20T02:24:07.602Z,21.60
2022-11-20T02:29:13.501Z,22.37
2022-11-20T02:34:18.704Z,22.47
2022-11-20T02:39:28.728Z,20.90
2022-11-20T02:44:34.498Z,20.35
2022-11-20T02:49:40.094Z,16.17
2022-11-20T02:54:45.587Z,21.97
2022-11-20T02:59:51.154Z,21.33
2022-11-20T03:04:56.669Z,19.25
2022-11-20T03:10:01.884Z,21.00
2022-11-20T03:15:07.933Z,22.63
2022-11-20T03:20:13.591Z,20.37
2022-11-20T03:25:18.552Z,21.70
2022-11-20T03:30:29.184Z,21.12
2022-11-20T03:35:31.538Z,20.07
2022-11-20T03:40:36.763Z,19.80
2022-11-20T03:45:41.660Z,20.40
2022-11-20T03:50:48.190Z,21.17
2022-11-20T03:55:54.428Z,22.07
2022-11-20T04:06:07.578Z,21.17
2022-11-20T04:11:27.162Z,21.57
2022-11-20T04:16:35.060Z,20.90
2022-11-20T04:21:40.707Z,21.77
2022-11-20T04:26:45.649Z,20.20
2022-11-20T04:31:51.478Z,20.80
2022-11-20T04:36:56.440Z,13.70
2022-11-20T04:42:19.452Z,20.60
2022-11-20T04:47:24.607Z,20.53
2022-11-20T04:52:30.168Z,19.90
2022-11-20T04:57:35.631Z,19.23
2022-11-20T05:02:41.034Z,19.97
2022-11-20T05:07:47.015Z,20.60
2022-11-20T05:12:52.011Z,18.77
2022-11-20T05:17:57.160Z,19.35
2022-11-20T05:23:02.584Z,19.23
2022-11-20T05:28:07.551Z,18.10
2022-11-20T05:33:13.033Z,18.40
2022-11-20T05:38:18.287Z,18.87
2022-11-20T05:43:24.260Z,17.97
2022-11-20T05:48:30.748Z,19.30
2022-11-20T05:53:38.252Z,17.80
2022-11-20T05:58:44.692Z,18.07
2022-11-20T06:03:52.453Z,17.40
2022-11-20T06:08:59.628Z,18.73
2022-11-20T06:14:06.758Z,18.37
2022-11-20T06:19:12.194Z,19.33
2022-11-20T06:24:18.612Z,18.05
2022-11-20T06:29:26.816Z,18.40
2022-11-20T06:34:31.749Z,18.77
2022-11-20T06:39:37.584Z,13.32
2022-11-20T06:44:42.774Z,15.40
2022-11-20T06:49:47.699Z,18.20
2022-11-20T06:54:52.575Z,17.23
2022-11-20T06:59:58.147Z,18.17
2022-11-20T07:05:03.201Z,17.60
2022-11-20T07:10:08.488Z,18.00
2022-11-20T07:15:13.917Z,14.57
2022-11-20T07:20:19.499Z,22.10
2022-11-20T07:25:29.651Z,26.15
2022-11-20T07:30:34.960Z,28.27
2022-11-20T07:35:40.365Z,38.00
2022-11-20T07:40:46.579Z,40.50
2022-11-20T07:45:51.934Z,37.25
2022-11-20T07:50:59.584Z,34.50
2022-11-20T07:56:05.461Z,35.77
2022-11-20T08:01:10.419Z,30.67
2022-11-20T08:06:16.377Z,43.57
2022-11-20T08:11:39.427Z,46.68
2022-11-20T08:16:49.616Z,41.40
2022-11-20T08:21:54.794Z,38.40
2022-11-20T08:27:01.368Z,36.60
2022-11-20T08:32:06.595Z,40.90
2022-11-20T08:37:13.742Z,44.88
2022-11-20T08:42:19.125Z,28.70
2022-11-20T08:47:24.832Z,35.80
2022-11-20T08:52:30.106Z,37.27
2022-11-20T08:57:36.941Z,27.55
2022-11-20T09:02:42.075Z,39.67
2022-11-20T09:07:47.625Z,37.33
2022-11-20T09:12:53.069Z,38.83
2022-11-20T09:18:00.206Z,38.60
2022-11-20T09:23:05.603Z,40.60
2022-11-20T09:28:11.063Z,38.80
2022-11-20T09:33:15.929Z,39.13
2022-11-20T09:38:21.318Z,38.77
2022-11-20T09:43:53.917Z,40.93
2022-11-20T09:49:17.003Z,39.27
2022-11-20T09:54:24.612Z,39.80
2022-11-20T09:59:33.541Z,40.37
2022-11-20T10:04:41.562Z,40.83
2022-11-20T10:09:55.317Z,41.00
2022-11-20T10:15:19.724Z,41.53
2022-11-20T10:20:33.519Z,39.90
2022-11-20T10:26:02.980Z,40.75
2022-11-20T10:31:11.647Z,44.00
2022-11-20T10:36:23.148Z,45.30
2022-11-20T10:41:33.063Z,43.63
2022-11-20T10:46:44.481Z,44.93
2022-11-20T10:51:52.772Z,42.23
2022-11-20T10:57:00.915Z,41.67
2022-11-20T11:02:21.292Z,40.93
2022-11-20T11:07:29.427Z,41.23
2022-11-20T11:12:34.641Z,41.53
2022-11-20T11:17:42.878Z,41.37
2022-11-20T11:22:51.772Z,40.80
2022-11-20T11:27:59.438Z,40.13
2022-11-20T11:33:09.926Z,40.53
2022-11-20T11:38:41.471Z,41.18
2022-11-20T11:44:12.927Z,40.33
2022-11-20T11:49:21.339Z,40.17
2022-11-20T11:54:35.698Z,41.20
2022-11-20T11:59:47.678Z,40.65
2022-11-20T12:05:05.932Z,40.88
2022-11-20T12:10:23.624Z,40.00
2022-11-20T12:15:35.149Z,39.80
2022-11-20T12:20:43.650Z,39.23
2022-11-20T12:25:51.719Z,40.57
2022-11-20T12:31:16.817Z,40.75
2022-11-20T12:36:25.845Z,41.07
2022-11-20T12:42:08.253Z,40.33
2022-11-20T12:47:21.650Z,40.20
2022-11-20T12:52:53.899Z,41.53
2022-11-20T12:58:02.297Z,42.03
2022-11-20T13:03:22.334Z,42.13
2022-11-20T13:08:31.104Z,41.97
2022-11-20T13:13:39.075Z,41.73
2022-11-20T13:18:46.206Z,40.60
2022-11-20T13:23:51.366Z,40.63
2022-11-20T13:29:15.294Z,40.33
2022-11-20T13:34:27.687Z,42.83
2022-11-20T13:39:38.387Z,43.65
2022-11-20T13:44:55.172Z,44.37
2022-11-20T13:55:22.239Z,43.43
2022-11-20T14:00:28.488Z,42.27
2022-11-20T14:05:36.794Z,42.93
2022-11-20T14:10:43.017Z,43.92
2022-11-20T14:15:48.195Z,40.70
2022-11-20T14:20:53.333Z,41.83
2022-11-20T14:25:58.750Z,40.97
2022-11-20T14:31:04.502Z,42.30
2022-11-20T14:36:12.983Z,40.07
2022-11-20T14:41:23.712Z,40.27
2022-11-20T14:46:31.972Z,40.67
2022-11-20T14:51:41.492Z,40.35
2022-11-20T14:56:57.204Z,39.75
2022-11-20T15:02:13.678Z,40.17
2022-11-20T15:07:31.093Z,40.52
2022-11-20T15:12:42.117Z,40.20
2022-11-20T15:17:47.282Z,40.47
2022-11-20T15:22:53.107Z,41.30
2022-11-20T15:27:59.763Z,41.63
2022-11-20T15:33:05.249Z,41.27
2022-11-20T15:38:10.618Z,46.87
2022-11-20T15:43:16.622Z,52.33
2022-11-20T15:48:25.013Z,49.37
2022-11-20T15:53:30.576Z,44.55
2022-11-20T15:58:36.003Z,44.93
2022-11-20T16:03:41.698Z,39.00
2022-11-20T16:08:47.171Z,42.93
2022-11-20T16:14:11.159Z,43.23
2022-11-20T16:19:17.316Z,46.40
2022-11-20T16:24:22.945Z,28.40
2022-11-20T16:29:28.494Z,41.37
2022-11-20T16:34:33.814Z,42.97
2022-11-20T16:39:39.697Z,50.85
2022-11-20T16:44:49.449Z,43.23
2022-11-20T16:49:54.796Z,44.67
2022-11-20T16:55:01.049Z,45.03
2022-11-20T17:00:07.264Z,41.23
2022-11-20T17:05:13.404Z,41.83
2022-11-20T17:10:18.968Z,43.43
2022-11-20T17:15:24.325Z,42.30
2022-11-20T17:20:31.073Z,42.90
2022-11-20T17:25:36.828Z,42.60
2022-11-20T17:30:42.467Z,39.30
2022-11-20T17:35:48.001Z,39.13
2022-11-20T17:40:53.918Z,40.50
2022-11-20T17:46:00.934Z,40.38
2022-11-20T17:51:07.513Z,39.17
2022-11-20T17:56:31.596Z,39.07
2022-11-20T18:01:38.250Z,42.37
2022-11-20T18:06:43.851Z,42.07
2022-11-20T18:11:48.971Z,40.60
2022-11-20T18:16:57.180Z,41.23
2022-11-20T18:22:04.269Z,48.53
2022-11-20T18:27:12.656Z,44.37
2022-11-20T18:32:18.348Z,44.20
2022-11-20T18:37:24.041Z,37.28
2022-11-20T18:42:47.081Z,41.05
2022-11-20T18:47:52.331Z,39.10
2022-11-20T18:52:58.116Z,36.43
2022-11-20T18:58:03.849Z,40.00
2022-11-20T19:03:09.233Z,38.80
2022-11-20T19:08:15.492Z,38.40
2022-11-20T19:13:20.699Z,34.60
2022-11-20T19:18:26.562Z,36.47
2022-11-20T19:23:33.201Z,36.17
2022-11-20T19:28:40.061Z,37.93
2022-11-20T19:33:46.744Z,46.95
2022-11-20T19:38:54.073Z,35.20
2022-11-20T19:44:02.418Z,34.73
2022-11-20T19:49:10.302Z,34.23
2022-11-20T19:54:17.931Z,33.27
2022-11-20T19:59:23.629Z,31.67
2022-11-20T20:04:29.302Z,32.60
2022-11-20T20:09:35.325Z,30.40
2022-11-20T20:14:40.238Z,31.93
2022-11-20T20:19:45.964Z,32.17
2022-11-20T20:24:52.347Z,33.17
2022-11-20T20:35:04.290Z,31.63
2022-11-20T20:40:14.878Z,29.93
2022-11-20T20:45:17.679Z,29.53
2022-11-20T20:50:23.789Z,29.67
2022-11-20T20:55:29.287Z,30.20
2022-11-20T21:00:34.121Z,29.60
2022-11-20T21:05:39.327Z,29.32
2022-11-20T21:10:44.758Z,28.97
2022-11-20T21:21:15.520Z,31.47
2022-11-20T21:26:21.782Z,30.97
2022-11-20T21:36:33.994Z,29.50
2022-11-20T21:41:40.061Z,30.23
2022-11-20T21:46:47.602Z,28.40
2022-11-20T21:51:53.716Z,30.33
2022-11-20T21:56:59.806Z,29.90
2022-11-20T22:02:04.864Z,32.20
2022-11-20T22:07:10.029Z,30.53
2022-11-20T22:12:15.418Z,28.50
2022-11-20T22:17:22.286Z,34.03
2022-11-20T22:27:32.787Z,31.85
2022-11-20T22:32:37.888Z,26.27
2022-11-20T22:37:43.928Z,19.85
2022-11-20T22:42:49.332Z,28.63
2022-11-20T22:47:54.533Z,27.35
2022-11-20T22:53:00.111Z,26.03
2022-11-20T22:58:05.763Z,19.53
2022-11-20T23:03:11.512Z,28.87
2022-11-20T23:08:16.880Z,26.13
2022-11-20T23:13:21.828Z,24.97
2022-11-20T23:18:27.786Z,25.73
2022-11-20T23:23:34.056Z,23.50
2022-11-20T23:28:40.016Z,22.60
2022-11-20T23:33:46.846Z,23.62
2022-11-20T23:38:52.500Z,22.63
2022-11-20T23:43:57.870Z,25.97
2022-11-20T23:49:02.820Z,24.00
2022-11-20T23:54:08.277Z,24.00
2022-11-20T23:59:13.930Z,30.90
